Time;durP1;ratioP1;P1;durP2;ratioP2;P2;SDS_P1;SDS_P2;PMS_P1;PMS_P2;Temp;Humidity;BMP_temperature;BMP_pressure;BME280_temperature;BME280_humidity;BME280_pressure;Samples;Min_cycle;Max_cycle;Signal;HPM_P1;HPM_P2
2023/07/16 00:01:47;;;;;;;72.07;18.50;;;21.90;37.50;;;;;;5078796;28;20213;-83
2023/07/16 00:04:15;;;;;;;70.90;20.30;;;21.90;37.90;;;;;;5078233;28;20584;-82
2023/07/16 00:06:40;;;;;;;70.70;16.27;;;21.90;38.30;;;;;;5096504;28;20623;-82
2023/07/16 00:09:09;;;;;;;72.17;17.10;;;21.90;37.40;;;;;;5077921;28;20426;-83
2023/07/16 00:11:34;;;;;;;71.93;19.43;;;21.80;37.60;;;;;;5096358;28;20168;-82
2023/07/16 00:14:01;;;;;;;71.93;18.77;;;21.80;40.50;;;;;;5078891;28;20554;-82
2023/07/16 00:16:27;;;;;;;71.20;16.97;;;21.80;38.80;;;;;;5081341;28;20163;-82
2023/07/16 00:18:53;;;;;;;71.80;17.97;;;21.80;38.90;;;;;;5103518;28;20433;-82
2023/07/16 00:21:19;;;;;;;73.97;20.23;;;21.70;39.80;;;;;;5103972;28;20621;-83
2023/07/16 00:23:44;;;;;;;73.27;21.13;;;21.60;44.20;;;;;;5103287;28;20185;-82
2023/07/16 00:26:12;;;;;;;71.80;20.27;;;21.70;41.90;;;;;;5101489;28;20168;-82
2023/07/16 00:28:38;;;;;;;73.40;24.67;;;21.60;43.80;;;;;;5101942;28;20180;-83
2023/07/16 00:31:04;;;;;;;74.20;21.90;;;21.60;44.90;;;;;;5101846;28;20489;-83
2023/07/16 00:33:29;;;;;;;78.30;21.97;;;21.50;47.00;;;;;;5101810;28;20171;-82
2023/07/16 00:35:55;;;;;;;70.80;17.57;;;21.50;45.20;;;;;;5103449;28;20652;-82
2023/07/16 00:38:21;;;;;;;72.53;17.77;;;21.50;43.60;;;;;;5102831;28;20421;-82
2023/07/16 00:40:47;;;;;;;72.60;20.47;;;21.30;47.30;;;;;;5101734;28;20199;-83
2023/07/16 00:43:14;;;;;;;75.53;18.17;;;21.30;46.50;;;;;;5084855;28;20198;-83
2023/07/16 00:45:41;;;;;;;71.17;19.07;;;21.30;44.70;;;;;;5100948;28;20397;-82
2023/07/16 00:48:07;;;;;;;72.23;18.57;;;21.20;45.50;;;;;;5103031;28;20191;-82
2023/07/16 00:50:39;;;;;;;69.93;18.37;;;21.20;44.70;;;;;;5103278;28;20404;-82
2023/07/16 00:53:08;;;;;;;70.67;19.10;;;21.20;46.30;;;;;;5084026;28;20931;-82
2023/07/16 00:55:36;;;;;;;70.17;16.60;;;21.20;44.70;;;;;;5103215;28;20428;-82
2023/07/16 00:58:07;;;;;;;73.00;16.57;;;21.20;41.50;;;;;;5100604;28;20413;-83
2023/07/16 01:00:37;;;;;;;72.33;19.87;;;21.20;41.00;;;;;;5100891;28;20413;-83
2023/07/16 01:03:04;;;;;;;70.10;18.37;;;21.20;42.60;;;;;;5103964;28;20435;-83
2023/07/16 01:05:39;;;;;;;71.00;17.67;;;21.10;42.60;;;;;;5103216;28;20761;-82
2023/07/16 01:08:09;;;;;;;71.73;15.43;;;21.10;42.80;;;;;;5084360;28;20439;-82
2023/07/16 01:10:35;;;;;;;71.47;18.67;;;21.10;42.80;;;;;;5084619;28;20416;-83
2023/07/16 01:13:01;;;;;;;70.77;15.80;;;21.00;42.90;;;;;;5084014;28;20501;-82
2023/07/16 01:15:30;;;;;;;69.10;14.27;;;21.10;40.50;;;;;;5084801;28;20504;-83
2023/07/16 01:17:56;;;;;;;74.77;13.80;;;21.10;40.40;;;;;;5100066;28;20421;-83
2023/07/16 01:20:21;;;;;;;73.53;21.00;;;21.10;40.30;;;;;;5101652;28;20405;-83
2023/07/16 01:23:05;;;;;;;69.20;16.47;;;21.00;41.60;;;;;;5102670;28;20164;-83
2023/07/16 01:26:16;;;;;;;71.17;14.97;;;21.00;40.50;;;;;;5083352;28;20534;-82
2023/07/16 01:29:12;;;;;;;70.40;13.73;;;21.00;41.70;;;;;;5056899;28;20429;-83
2023/07/16 01:31:40;;;;;;;72.67;13.77;;;21.00;41.10;;;;;;5085037;28;20408;-82
2023/07/16 01:34:06;;;;;;;71.70;16.17;;;20.90;41.10;;;;;;5100921;28;20401;-83
2023/07/16 01:36:34;;;;;;;70.47;13.20;;;21.00;39.60;;;;;;5101373;28;20973;-83
2023/07/16 01:39:00;;;;;;;73.30;15.27;;;20.90;40.90;;;;;;5084407;28;20432;-83
2023/07/16 01:41:26;;;;;;;69.47;14.23;;;21.00;38.00;;;;;;5102663;28;20437;-82
2023/07/16 01:43:51;;;;;;;70.40;15.37;;;20.90;39.10;;;;;;5103217;28;20400;-83
2023/07/16 01:46:18;;;;;;;70.67;15.57;;;20.90;40.10;;;;;;5101014;28;20167;-83
2023/07/16 01:48:44;;;;;;;69.67;14.27;;;20.90;40.20;;;;;;5102353;28;20189;-82
2023/07/16 01:51:11;;;;;;;70.07;16.43;;;20.90;39.20;;;;;;5083848;28;20830;-83
2023/07/16 01:53:37;;;;;;;71.47;16.50;;;20.80;41.00;;;;;;5101514;28;20191;-83
2023/07/16 01:56:02;;;;;;;71.00;18.87;;;20.80;42.90;;;;;;5102659;28;20404;-83
2023/07/16 01:58:28;;;;;;;73.37;18.93;;;20.70;42.90;;;;;;5100077;28;20184;-83
2023/07/16 02:00:54;;;;;;;71.60;16.80;;;20.70;43.00;;;;;;5188791;22;20218;-83
2023/07/16 02:03:20;;;;;;;70.43;17.07;;;20.70;42.80;;;;;;5103076;28;20408;-83
2023/07/16 02:05:48;;;;;;;74.00;17.47;;;20.70;42.90;;;;;;5121078;28;20198;-82
2023/07/16 02:08:14;;;;;;;72.00;17.17;;;20.60;46.50;;;;;;5115013;28;20187;-82
2023/07/16 02:10:40;;;;;;;70.90;15.80;;;20.50;46.80;;;;;;5101027;28;20470;-82
2023/07/16 02:13:05;;;;;;;74.20;19.70;;;20.50;47.20;;;;;;5100815;28;20198;-83
2023/07/16 02:15:31;;;;;;;72.73;18.23;;;20.40;51.40;;;;;;5081631;28;20170;-82
2023/07/16 02:17:57;;;;;;;72.20;20.30;;;20.30;51.60;;;;;;5101109;28;20181;-83
2023/07/16 02:20:22;;;;;;;70.97;16.87;;;20.20;55.10;;;;;;5098080;28;20171;-82
2023/07/16 02:22:48;;;;;;;72.97;18.80;;;20.30;51.70;;;;;;5100588;28;20297;-83
2023/07/16 02:25:14;;;;;;;76.50;21.53;;;20.20;52.50;;;;;;5100213;28;20201;-82
2023/07/16 02:27:39;;;;;;;69.23;14.90;;;20.20;53.40;;;;;;5101059;28;20238;-83
2023/07/16 02:30:06;;;;;;;69.33;13.30;;;20.30;50.30;;;;;;5100835;28;20504;-83
2023/07/16 02:32:33;;;;;;;70.87;13.10;;;20.20;47.50;;;;;;5098878;28;20584;-82
2023/07/16 02:35:02;;;;;;;69.27;13.60;;;20.20;46.70;;;;;;5100003;28;20765;-82
2023/07/16 02:37:28;;;;;;;69.27;13.73;;;20.10;47.20;;;;;;5098819;28;20405;-82
2023/07/16 02:39:54;;;;;;;68.47;12.97;;;20.10;47.50;;;;;;5098815;28;20397;-82
2023/07/16 02:42:20;;;;;;;73.17;18.07;;;20.00;48.10;;;;;;5101065;28;20199;-83
2023/07/16 02:44:45;;;;;;;72.87;15.73;;;20.00;51.80;;;;;;5100611;28;20168;-82
2023/07/16 02:47:11;;;;;;;74.23;15.70;;;19.90;50.20;;;;;;5100670;28;20176;-83
2023/07/16 02:49:38;;;;;;;70.70;17.17;;;19.90;49.20;;;;;;5100777;28;20188;-83
2023/07/16 02:52:04;;;;;;;72.87;15.27;;;20.00;48.30;;;;;;5100480;28;20445;-82
2023/07/16 02:54:30;;;;;;;69.50;12.40;;;19.90;48.10;;;;;;5097454;28;20776;-82
2023/07/16 02:56:55;;;;;;;69.07;15.17;;;19.90;48.60;;;;;;5080445;28;20410;-83
2023/07/16 02:59:21;;;;;;;72.57;15.57;;;20.00;45.20;;;;;;5101564;28;20267;-83
2023/07/16 03:01:46;;;;;;;71.30;14.37;;;19.90;46.00;;;;;;5098407;28;20203;-82
2023/07/16 03:04:12;;;;;;;70.60;12.50;;;19.90;44.80;;;;;;5097751;28;20587;-82
2023/07/16 03:06:38;;;;;;;69.77;10.97;;;20.00;43.70;;;;;;5097045;28;20548;-82
2023/07/16 03:09:04;;;;;;;71.67;14.17;;;19.90;43.20;;;;;;5079551;28;20190;-81
2023/07/16 03:11:29;;;;;;;70.20;11.57;;;19.90;46.00;;;;;;5079577;28;20169;-83
2023/07/16 03:13:55;;;;;;;70.40;12.27;;;19.90;41.90;;;;;;5082500;28;20402;-82
2023/07/16 03:16:21;;;;;;;70.63;11.27;;;19.90;40.10;;;;;;5099430;28;20261;-82
2023/07/16 03:18:46;;;;;;;70.90;10.47;;;19.90;41.50;;;;;;5098806;28;20186;-82
2023/07/16 03:21:12;;;;;;;69.40;10.67;;;19.90;39.60;;;;;;5097083;28;20539;-82
2023/07/16 03:23:38;;;;;;;71.40;9.67;;;19.90;39.30;;;;;;5097663;28;20241;-82
2023/07/16 03:26:04;;;;;;;68.47;10.90;;;19.90;37.10;;;;;;5097768;28;20833;-82
2023/07/16 03:28:30;;;;;;;69.77;12.00;;;19.70;40.30;;;;;;5079240;28;20275;-82
2023/07/16 03:30:55;;;;;;;68.37;10.03;;;19.60;42.60;;;;;;5079307;28;20267;-82
2023/07/16 03:33:21;;;;;;;75.37;9.00;;;19.60;40.90;;;;;;5081237;28;20225;-82
2023/07/16 03:35:48;;;;;;;68.40;9.50;;;19.60;35.60;;;;;;5080244;28;20172;-83
2023/07/16 03:38:14;;;;;;;68.37;7.40;;;19.70;33.00;;;;;;5081794;28;20659;-83
2023/07/16 03:40:43;;;;;;;72.47;9.10;;;19.60;31.00;;;;;;5079104;28;20416;-82
2023/07/16 03:43:08;;;;;;;69.67;7.97;;;19.50;31.50;;;;;;5079908;28;20912;-82
2023/07/16 03:45:34;;;;;;;69.87;7.77;;;19.60;29.40;;;;;;5098187;28;20409;-83
2023/07/16 03:48:00;;;;;;;68.33;7.07;;;19.70;27.30;;;;;;5079776;28;20193;-82
2023/07/16 03:50:25;;;;;;;69.80;7.60;;;19.80;23.20;;;;;;5099660;28;20244;-83
2023/07/16 03:52:51;;;;;;;68.30;7.37;;;19.70;24.10;;;;;;5102212;28;20165;-82
2023/07/16 03:55:17;;;;;;;72.07;8.07;;;19.70;25.20;;;;;;5102852;28;20163;-83
2023/07/16 03:57:42;;;;;;;68.87;7.50;;;19.70;25.20;;;;;;5085084;28;20171;-83
2023/07/16 04:00:09;;;;;;;73.17;7.97;;;19.60;25.70;;;;;;5085080;28;20172;-82
2023/07/16 04:02:36;;;;;;;70.90;8.60;;;19.60;26.70;;;;;;5083466;28;20194;-82
2023/07/16 04:05:02;;;;;;;69.27;7.40;;;19.60;27.40;;;;;;5100270;28;20738;-83
2023/07/16 04:07:28;;;;;;;69.93;8.47;;;19.50;28.20;;;;;;5085188;28;20398;-82
2023/07/16 04:09:54;;;;;;;70.90;8.80;;;19.50;29.30;;;;;;5100417;28;20484;-82
2023/07/16 04:12:20;;;;;;;70.80;8.90;;;19.50;28.90;;;;;;5082235;28;20534;-82
2023/07/16 04:14:46;;;;;;;68.27;7.40;;;19.50;28.50;;;;;;5100293;28;20416;-83
2023/07/16 04:17:12;;;;;;;69.43;8.00;;;19.60;28.80;;;;;;5101248;28;20170;-82
2023/07/16 04:19:41;;;;;;;69.27;8.07;;;19.70;27.40;;;;;;5100830;28;20472;-82
2023/07/16 04:22:06;;;;;;;70.13;8.80;;;19.70;27.60;;;;;;5101902;28;20191;-82
2023/07/16 04:24:32;;;;;;;70.00;8.40;;;19.80;26.70;;;;;;5101971;28;20427;-83
2023/07/16 04:26:58;;;;;;;70.87;10.40;;;19.80;26.80;;;;;;5102128;28;20170;-82
2023/07/16 04:29:24;;;;;;;70.47;9.97;;;19.90;26.50;;;;;;5102461;28;20651;-83
2023/07/16 04:31:50;;;;;;;70.40;10.90;;;20.00;25.50;;;;;;5102432;28;20408;-83
2023/07/16 04:34:16;;;;;;;69.90;9.63;;;20.00;24.90;;;;;;5083851;28;20645;-83
2023/07/16 04:36:44;;;;;;;69.47;11.67;;;20.00;26.80;;;;;;5100009;28;20194;-82
2023/07/16 04:39:10;;;;;;;68.40;8.47;;;20.00;26.80;;;;;;5102511;28;20197;-83
2023/07/16 04:41:36;;;;;;;69.03;10.77;;;19.90;28.40;;;;;;5103098;28;20455;-82
2023/07/16 04:44:02;;;;;;;70.20;9.17;;;19.90;28.20;;;;;;5101902;28;20193;-83
2023/07/16 04:46:27;;;;;;;69.47;10.47;;;19.90;28.00;;;;;;5102604;28;20402;-82
2023/07/16 04:48:53;;;;;;;71.07;6.30;;;20.10;32.00;;;;;;5103598;28;20179;-83
2023/07/16 04:51:19;;;;;;;68.30;6.10;;;20.50;30.70;;;;;;5100657;28;20302;-83
2023/07/16 04:53:44;;;;;;;70.80;8.30;;;20.70;20.20;;;;;;5100500;28;20172;-83
2023/07/16 04:56:15;;;;;;;69.70;10.47;;;21.00;10.50;;;;;;5100285;28;20167;-82
2023/07/16 04:58:40;;;;;;;74.00;11.80;;;21.50;4.70;;;;;;5100089;28;20611;-82
2023/07/16 05:01:10;;;;;;;72.17;10.37;;;21.60;1.00;;;;;;5099968;28;20468;-82
2023/07/16 05:03:36;;;;;;;72.93;8.10;;;21.80;1.00;;;;;;5101164;28;20429;-83
2023/07/16 05:06:02;;;;;;;68.30;5.60;;;22.00;1.00;;;;;;5100523;28;20468;-82
2023/07/16 05:08:28;;;;;;;69.77;8.93;;;22.00;1.00;;;;;;5102421;28;20453;-81
2023/07/16 05:10:54;;;;;;;71.37;10.30;;;21.80;1.00;;;;;;5101989;28;20416;-83
2023/07/16 05:13:20;;;;;;;69.07;10.43;;;21.70;1.00;;;;;;5102323;28;20435;-82
2023/07/16 05:15:45;;;;;;;70.40;11.90;;;21.50;1.00;;;;;;5099438;28;20409;-82
2023/07/16 05:18:11;;;;;;;75.73;12.33;;;21.50;1.00;;;;;;5100614;28;20709;-83
2023/07/16 05:20:37;;;;;;;70.60;14.33;;;21.30;1.00;;;;;;5083996;28;20205;-82
2023/07/16 05:23:02;;;;;;;73.50;13.60;;;21.20;1.00;;;;;;5099887;28;20168;-83
2023/07/16 05:25:28;;;;;;;70.57;11.83;;;21.00;1.00;;;;;;5100022;28;20163;-82
2023/07/16 05:27:54;;;;;;;70.00;12.03;;;21.00;1.00;;;;;;5099957;28;20535;-83
2023/07/16 05:30:19;;;;;;;70.23;13.03;;;20.90;1.00;;;;;;5081602;28;20175;-82
2023/07/16 05:32:45;;;;;;;72.87;13.43;;;21.00;1.00;;;;;;5102016;28;20662;-83
2023/07/16 05:35:11;;;;;;;74.00;11.90;;;21.10;1.00;;;;;;5102352;28;20649;-83
2023/07/16 05:37:36;;;;;;;72.63;13.43;;;20.90;1.00;;;;;;5102595;28;20170;-83
2023/07/16 05:40:03;;;;;;;74.60;14.80;;;20.80;1.00;;;;;;5101999;28;20670;-83
2023/07/16 05:42:29;;;;;;;71.53;14.47;;;20.80;1.00;;;;;;5101978;28;20273;-82
2023/07/16 05:44:54;;;;;;;70.03;12.10;;;20.70;1.00;;;;;;5101805;28;20444;-83
2023/07/16 05:47:20;;;;;;;71.67;12.80;;;20.50;1.00;;;;;;5101854;28;20155;-82
2023/07/16 05:49:46;;;;;;;70.57;13.70;;;20.50;1.00;;;;;;5082152;28;20192;-82
2023/07/16 05:52:11;;;;;;;75.80;15.87;;;20.60;1.00;;;;;;5102449;28;20183;-82
2023/07/16 05:54:37;;;;;;;73.43;13.50;;;20.50;1.00;;;;;;5103103;28;20610;-83
2023/07/16 05:57:03;;;;;;;74.30;15.30;;;20.60;1.00;;;;;;5102684;28;20194;-83
2023/07/16 05:59:28;;;;;;;75.70;13.60;;;20.60;1.00;;;;;;5084755;28;20558;-83
2023/07/16 06:01:55;;;;;;;71.90;12.47;;;20.50;1.00;;;;;;5103128;28;20202;-82
2023/07/16 06:04:20;;;;;;;73.03;14.10;;;20.50;1.00;;;;;;5102450;28;20169;-81
2023/07/16 06:06:46;;;;;;;72.20;13.17;;;20.50;1.00;;;;;;5102619;28;20423;-81
2023/07/16 06:09:12;;;;;;;72.37;12.80;;;20.40;1.00;;;;;;5084233;28;20659;-81
2023/07/16 06:11:38;;;;;;;74.67;14.93;;;20.40;1.00;;;;;;5102510;28;20413;-82
2023/07/16 06:14:06;;;;;;;75.13;13.83;;;20.40;1.00;;;;;;5102800;28;20253;-81
2023/07/16 06:16:32;;;;;;;72.43;13.47;;;20.40;1.00;;;;;;5102540;28;20256;-82
2023/07/16 06:18:57;;;;;;;74.13;14.47;;;20.50;1.00;;;;;;5100159;28;20472;-82
2023/07/16 06:21:23;;;;;;;72.90;13.90;;;20.40;1.00;;;;;;5082007;28;20244;-82
2023/07/16 06:23:49;;;;;;;78.37;14.70;;;20.30;1.00;;;;;;5101121;28;20523;-81
2023/07/16 06:26:14;;;;;;;70.03;13.33;;;20.40;1.00;;;;;;5100746;28;20625;-82
2023/07/16 06:28:40;;;;;;;79.23;14.33;;;20.40;1.00;;;;;;5102010;28;20625;-82
2023/07/16 06:31:06;;;;;;;74.13;13.00;;;20.30;1.00;;;;;;5100097;28;20174;-81
2023/07/16 06:33:31;;;;;;;72.90;12.43;;;20.40;1.00;;;;;;5100571;28;20523;-81
2023/07/16 06:35:57;;;;;;;73.60;15.40;;;20.40;1.00;;;;;;5100354;28;20229;-82
2023/07/16 06:38:23;;;;;;;72.60;10.20;;;20.50;1.00;;;;;;5083365;28;20597;-81
2023/07/16 06:40:50;;;;;;;72.30;7.73;;;20.50;1.00;;;;;;5104288;28;20188;-82
2023/07/16 06:43:16;;;;;;;69.60;6.93;;;20.50;1.00;;;;;;5082226;28;20261;-81
2023/07/16 06:45:42;;;;;;;72.63;7.73;;;20.40;1.00;;;;;;5099417;28;20397;-81
2023/07/16 06:48:07;;;;;;;69.90;7.27;;;20.40;1.00;;;;;;5099950;28;20422;-81
2023/07/16 06:50:33;;;;;;;71.63;9.57;;;20.40;1.00;;;;;;5081748;28;20425;-82
2023/07/16 06:52:59;;;;;;;69.53;8.20;;;20.40;1.00;;;;;;5099973;28;20179;-81
2023/07/16 06:55:24;;;;;;;75.57;9.50;;;20.50;1.00;;;;;;5099829;28;20185;-81
2023/07/16 06:57:50;;;;;;;72.90;8.13;;;20.50;1.00;;;;;;5082770;28;20192;-80
2023/07/16 07:00:16;;;;;;;73.43;6.97;;;20.60;1.00;;;;;;5082437;28;20192;-82
2023/07/16 07:02:42;;;;;;;67.67;4.47;;;20.60;1.00;;;;;;5082539;28;20194;-82
2023/07/16 07:05:08;;;;;;;74.20;5.70;;;20.50;1.00;;;;;;5099623;28;20401;-82
2023/07/16 07:07:33;;;;;;;70.00;5.40;;;20.50;1.00;;;;;;5101216;28;20730;-81
2023/07/16 07:09:59;;;;;;;70.77;5.80;;;20.50;1.00;;;;;;5097799;28;20413;-82
2023/07/16 07:12:25;;;;;;;70.27;4.70;;;20.50;1.00;;;;;;5098998;28;20172;-80
2023/07/16 07:14:50;;;;;;;71.57;5.70;;;20.60;1.00;;;;;;5099049;28;20236;-81
2023/07/16 07:17:16;;;;;;;71.20;5.30;;;20.60;1.00;;;;;;5097425;28;20697;-82
2023/07/16 07:19:43;;;;;;;71.17;5.00;;;20.60;1.00;;;;;;5081002;28;20204;-81
2023/07/16 07:22:08;;;;;;;70.10;4.87;;;20.50;1.00;;;;;;5098071;28;20229;-82
2023/07/16 07:24:34;;;;;;;70.37;5.20;;;20.60;1.00;;;;;;5079166;28;20409;-80
2023/07/16 07:27:00;;;;;;;69.20;4.30;;;20.60;1.00;;;;;;5077851;28;20600;-80
2023/07/16 07:29:25;;;;;;;75.40;5.90;;;20.70;1.00;;;;;;5096711;28;20550;-80
2023/07/16 07:31:53;;;;;;;68.70;5.10;;;20.80;1.00;;;;;;5097970;28;20539;-80
2023/07/16 07:34:18;;;;;;;72.20;5.13;;;20.80;1.00;;;;;;5097630;28;20726;-81
2023/07/16 07:36:44;;;;;;;68.50;4.33;;;20.90;1.00;;;;;;5098339;28;20437;-82
2023/07/16 07:39:10;;;;;;;71.77;4.70;;;20.90;1.00;;;;;;5098151;28;20187;-80
2023/07/16 07:41:36;;;;;;;69.63;4.90;;;21.00;1.00;;;;;;5078769;28;20454;-81
2023/07/16 07:44:01;;;;;;;71.67;5.57;;;21.00;1.00;;;;;;5095500;28;20250;-82
2023/07/16 07:46:27;;;;;;;73.07;5.20;;;21.00;1.00;;;;;;5094642;28;20163;-82
2023/07/16 07:48:53;;;;;;;69.67;4.90;;;21.00;1.00;;;;;;5094321;28;20191;-83
2023/07/16 07:51:20;;;;;;;72.30;5.57;;;21.10;1.00;;;;;;5076736;28;20215;-83
2023/07/16 07:53:46;;;;;;;71.03;5.60;;;21.10;1.00;;;;;;5076248;28;20407;-82
2023/07/16 07:56:11;;;;;;;71.87;4.83;;;21.10;1.00;;;;;;5094245;28;20460;-84
2023/07/16 08:02:15;;;;;;;68.87;5.10;;;21.20;1.00;;;;;;5096563;28;20298;-81
2023/07/16 08:05:02;;;;;;;69.27;4.67;;;21.30;1.00;;;;;;5114368;28;20385;-83
2023/07/16 08:07:48;;;;;;;70.23;5.00;;;21.40;1.00;;;;;;5096511;28;20488;-83
2023/07/16 08:10:30;;;;;;;72.73;5.50;;;21.40;1.00;;;;;;5094288;28;20410;-82
2023/07/16 08:12:58;;;;;;;72.40;4.90;;;21.40;1.00;;;;;;5094744;28;20369;-83
2023/07/16 08:15:53;;;;;;;70.17;5.33;;;21.50;1.00;;;;;;5094906;28;20422;-83
2023/07/16 08:18:18;;;;;;;70.13;4.97;;;21.50;1.00;;;;;;5032141;28;20459;-82
2023/07/16 08:21:01;;;;;;;73.30;5.03;;;21.60;1.00;;;;;;5089419;28;20404;-83
2023/07/16 08:23:27;;;;;;;72.50;5.10;;;21.60;1.00;;;;;;5094510;28;20160;-82
2023/07/16 08:25:58;;;;;;;70.60;5.93;;;21.50;1.00;;;;;;5094336;28;20398;-82
2023/07/16 08:28:27;;;;;;;70.90;5.77;;;21.50;1.00;;;;;;5075784;28;20190;-82
2023/07/16 08:30:53;;;;;;;70.60;5.63;;;21.60;1.00;;;;;;5076453;28;20803;-82
2023/07/16 08:33:30;;;;;;;71.13;5.37;;;21.60;1.00;;;;;;5093690;28;20488;-82
2023/07/16 08:35:59;;;;;;;70.40;4.93;;;21.70;1.00;;;;;;5093889;28;20673;-83
2023/07/16 08:38:25;;;;;;;71.00;5.13;;;21.80;1.00;;;;;;5077107;28;20426;-81
2023/07/16 08:41:02;;;;;;;70.07;5.10;;;21.90;1.00;;;;;;5097185;28;20502;-81
2023/07/16 08:43:32;;;;;;;68.70;4.60;;;21.90;1.00;;;;;;5097109;28;20226;-81
2023/07/16 08:46:26;;;;;;;73.40;5.40;;;21.90;1.00;;;;;;5097270;28;20413;-82
2023/07/16 08:48:59;;;;;;;71.33;5.40;;;21.90;1.00;;;;;;5097182;28;20418;-82
2023/07/16 08:51:31;;;;;;;70.03;5.60;;;22.10;1.00;;;;;;5097169;28;20427;-81
2023/07/16 08:53:59;;;;;;;72.30;6.20;;;22.10;1.00;;;;;;5097175;28;20386;-81
2023/07/16 08:56:25;;;;;;;71.27;5.40;;;22.10;1.00;;;;;;5078766;28;20492;-81
2023/07/16 08:59:09;;;;;;;70.00;4.90;;;22.20;1.00;;;;;;5096885;28;20459;-81
2023/07/16 09:01:40;;;;;;;72.03;5.10;;;22.20;1.00;;;;;;5096969;28;20507;-82
2023/07/16 09:07:36;;;;;;;69.57;4.50;;;22.20;1.00;;;;;;5092638;28;20435;-83
2023/07/16 09:10:13;;;;;;;72.40;4.67;;;22.40;1.00;;;;;;5096583;28;20427;-83
2023/07/16 09:12:56;;;;;;;68.50;4.10;;;22.60;1.00;;;;;;5096804;28;20443;-83
2023/07/16 09:15:53;;;;;;;69.80;4.70;;;22.60;1.00;;;;;;5098188;28;20378;-84
2023/07/16 09:18:46;;;;;;;70.07;4.33;;;22.70;1.00;;;;;;5078273;28;20464;-83
2023/07/16 09:21:33;;;;;;;71.43;4.40;;;22.80;1.00;;;;;;5098381;28;20526;-84
2023/07/16 09:24:19;;;;;;;70.70;4.53;;;22.80;1.00;;;;;;5097898;28;20485;-83
2023/07/16 09:27:15;;;;;;;74.93;4.57;;;22.80;1.00;;;;;;5079651;28;20983;-83
2023/07/16 09:29:52;;;;;;;71.47;3.90;;;22.90;1.00;;;;;;5097609;28;20420;-83
2023/07/16 09:32:36;;;;;;;68.47;3.97;;;23.10;1.00;;;;;;5097845;28;20829;-83
2023/07/16 09:35:28;;;;;;;69.50;4.17;;;23.20;1.00;;;;;;5073094;28;20947;-83
2023/07/16 09:38:24;;;;;;;69.40;3.87;;;23.40;1.00;;;;;;5076885;28;20494;-83
2023/07/16 09:40:52;;;;;;;67.77;3.33;;;23.40;1.00;;;;;;5094791;28;20413;-83
2023/07/16 09:43:18;;;;;;;70.23;3.67;;;23.30;1.00;;;;;;5102678;28;20433;-82
2023/07/16 09:45:44;;;;;;;71.40;3.77;;;23.30;1.00;;;;;;5102715;28;20436;-83
2023/07/16 09:48:10;;;;;;;70.57;4.20;;;23.50;1.00;;;;;;5102198;28;20481;-82
2023/07/16 09:50:36;;;;;;;69.73;3.83;;;23.60;1.00;;;;;;5082876;28;20413;-82
2023/07/16 09:53:04;;;;;;;69.03;3.77;;;23.70;1.00;;;;;;5102087;28;20398;-82
2023/07/16 09:55:35;;;;;;;69.00;4.10;;;24.00;1.00;;;;;;5103057;28;20398;-82
2023/07/16 09:58:03;;;;;;;67.73;3.83;;;24.10;1.00;;;;;;5103739;28;20474;-82
2023/07/16 10:00:30;;;;;;;68.67;3.90;;;24.30;1.00;;;;;;5103080;28;20415;-82
2023/07/16 10:02:57;;;;;;;70.60;3.40;;;24.40;1.00;;;;;;5099781;28;20442;-81
2023/07/16 10:05:27;;;;;;;69.77;3.63;;;24.60;1.00;;;;;;5099223;28;20787;-81
2023/07/16 10:07:59;;;;;;;68.67;3.53;;;24.70;1.00;;;;;;5079277;28;20440;-81
2023/07/16 10:10:44;;;;;;;68.00;3.97;;;25.00;1.00;;;;;;5079860;28;20413;-81
2023/07/16 10:13:15;;;;;;;67.90;3.20;;;25.40;1.00;;;;;;5098858;28;20907;-81
2023/07/16 10:15:57;;;;;;;68.60;3.50;;;25.40;1.00;;;;;;5098196;28;20385;-81
2023/07/16 10:18:31;;;;;;;70.20;3.93;;;25.40;1.00;;;;;;5080383;28;20436;-81
2023/07/16 10:21:08;;;;;;;69.03;3.63;;;25.40;1.00;;;;;;5099478;28;20464;-81
2023/07/16 10:23:40;;;;;;;77.67;3.63;;;25.30;1.00;;;;;;5099021;28;20880;-81
2023/07/16 10:26:08;;;;;;;73.97;4.00;;;25.20;1.00;;;;;;5097813;28;20405;-81
2023/07/16 10:28:35;;;;;;;74.00;3.63;;;25.50;1.00;;;;;;5081603;28;20428;-82
2023/07/16 10:31:01;;;;;;;68.10;3.37;;;25.80;1.00;;;;;;5080913;28;20503;-81
2023/07/16 10:33:26;;;;;;;70.87;4.17;;;26.10;1.00;;;;;;5100427;28;20405;-80
2023/07/16 10:35:53;;;;;;;70.03;4.10;;;26.30;1.00;;;;;;5099425;28;20408;-81
2023/07/16 10:38:18;;;;;;;69.87;3.43;;;26.00;1.00;;;;;;5097370;28;20636;-81
2023/07/16 10:40:45;;;;;;;69.80;3.77;;;26.10;1.00;;;;;;5079013;28;20424;-81
2023/07/16 10:43:15;;;;;;;70.17;3.40;;;26.00;1.00;;;;;;5098438;28;20163;-82
2023/07/16 10:45:41;;;;;;;70.57;4.40;;;26.10;1.00;;;;;;5099056;28;20492;-81
2023/07/16 10:48:07;;;;;;;71.73;3.40;;;26.00;1.00;;;;;;5099662;28;20421;-81
2023/07/16 10:50:34;;;;;;;69.97;3.90;;;25.90;1.00;;;;;;5098276;28;20393;-81
2023/07/16 10:53:00;;;;;;;68.67;3.70;;;25.90;1.00;;;;;;5099517;28;20167;-81
2023/07/16 10:55:32;;;;;;;69.33;3.70;;;25.60;1.00;;;;;;5097972;28;20398;-80
2023/07/16 10:57:58;;;;;;;74.50;4.50;;;25.70;1.00;;;;;;5080284;28;20455;-81
2023/07/16 11:00:24;;;;;;;73.10;3.77;;;25.90;1.00;;;;;;5097836;28;20772;-81
2023/07/16 11:02:51;;;;;;;68.37;3.87;;;25.90;1.00;;;;;;5096920;28;20437;-81
2023/07/16 11:05:18;;;;;;;68.87;4.10;;;25.90;1.00;;;;;;5097878;28;20186;-81
2023/07/16 11:07:48;;;;;;;70.40;4.40;;;26.00;1.00;;;;;;5079756;28;20410;-80
2023/07/16 11:10:21;;;;;;;71.17;4.10;;;26.00;1.00;;;;;;5096907;28;20415;-81
2023/07/16 11:12:52;;;;;;;69.97;4.27;;;25.90;1.00;;;;;;5078645;28;20932;-82
2023/07/16 11:15:17;;;;;;;69.57;4.30;;;26.30;1.00;;;;;;5097013;28;20390;-81
2023/07/16 11:17:48;;;;;;;69.37;4.40;;;26.40;1.00;;;;;;5096883;28;20402;-80
2023/07/16 11:20:14;;;;;;;69.97;4.80;;;26.70;1.00;;;;;;5095992;28;20569;-81
2023/07/16 11:22:40;;;;;;;68.97;5.10;;;27.10;1.00;;;;;;5096929;28;20470;-81
2023/07/16 11:25:15;;;;;;;73.30;6.13;;;27.30;1.00;;;;;;5097868;28;20160;-81
2023/07/16 11:27:42;;;;;;;71.57;6.07;;;27.50;1.00;;;;;;5079002;28;20401;-81
2023/07/16 11:30:08;;;;;;;73.67;6.17;;;27.70;1.00;;;;;;5079968;28;20846;-80
2023/07/16 11:32:42;;;;;;;69.03;5.53;;;27.50;1.00;;;;;;5096149;28;20413;-80
2023/07/16 11:35:08;;;;;;;69.60;5.17;;;27.00;1.00;;;;;;5097357;28;20865;-81
2023/07/16 11:37:35;;;;;;;69.70;5.87;;;26.90;1.00;;;;;;5097094;28;20413;-80
2023/07/16 11:40:06;;;;;;;69.70;5.30;;;26.70;1.00;;;;;;5097466;28;20405;-81
2023/07/16 11:42:33;;;;;;;72.00;5.10;;;26.60;1.00;;;;;;5096222;28;21009;-81
2023/07/16 11:45:00;;;;;;;68.87;5.20;;;26.40;1.00;;;;;;5096381;28;20389;-80
2023/07/16 11:47:26;;;;;;;68.50;3.73;;;26.50;1.00;;;;;;5096610;28;20405;-81
2023/07/16 11:49:53;;;;;;;71.90;4.03;;;26.50;1.00;;;;;;5077500;28;20413;-81
2023/07/16 11:52:30;;;;;;;69.30;4.90;;;26.60;1.00;;;;;;5097560;28;20416;-81
2023/07/16 11:54:59;;;;;;;70.10;5.10;;;26.70;1.00;;;;;;5097112;28;20428;-81
2023/07/16 11:57:25;;;;;;;70.00;5.17;;;26.70;1.00;;;;;;5077926;28;20416;-82
2023/07/16 11:59:51;;;;;;;70.70;5.20;;;26.50;1.00;;;;;;5078496;28;20448;-81
2023/07/16 12:02:17;;;;;;;69.40;4.60;;;26.40;1.00;;;;;;5096865;28;20441;-81
2023/07/16 12:04:43;;;;;;;71.20;4.87;;;26.30;1.00;;;;;;5078416;28;20171;-81
2023/07/16 12:07:08;;;;;;;70.97;4.70;;;26.60;1.00;;;;;;5078319;28;20987;-81
2023/07/16 12:09:34;;;;;;;69.57;5.40;;;26.90;1.00;;;;;;5097193;28;20184;-80
2023/07/16 12:12:00;;;;;;;70.93;4.87;;;26.60;1.00;;;;;;5096648;28;20172;-80
2023/07/16 12:14:26;;;;;;;71.43;5.27;;;26.40;1.00;;;;;;5099370;28;20173;-81
2023/07/16 12:16:52;;;;;;;69.37;5.60;;;26.30;1.00;;;;;;5100072;28;20443;-80
2023/07/16 12:19:18;;;;;;;71.03;4.77;;;26.30;1.00;;;;;;5100715;28;20413;-81
2023/07/16 12:21:44;;;;;;;70.20;5.33;;;26.60;1.00;;;;;;5100773;28;20199;-81
2023/07/16 12:24:10;;;;;;;72.90;6.90;;;26.80;1.00;;;;;;5100432;28;20191;-82
2023/07/16 12:26:36;;;;;;;74.43;6.43;;;27.00;1.00;;;;;;5083604;28;20225;-81
2023/07/16 12:29:03;;;;;;;71.30;6.60;;;26.90;1.00;;;;;;5101511;28;20425;-82
2023/07/16 12:31:31;;;;;;;75.83;6.30;;;27.30;1.00;;;;;;5101759;28;20409;-81
2023/07/16 12:33:57;;;;;;;72.47;6.70;;;27.90;1.00;;;;;;5101637;28;20495;-82
2023/07/16 12:36:22;;;;;;;71.50;6.67;;;27.70;1.00;;;;;;5100714;28;21000;-81
2023/07/16 12:38:48;;;;;;;70.87;7.00;;;27.60;1.00;;;;;;5099465;28;20944;-81
2023/07/16 12:41:15;;;;;;;69.00;6.07;;;27.30;1.00;;;;;;5101164;28;20214;-82
2023/07/16 12:43:41;;;;;;;76.73;7.33;;;27.10;1.00;;;;;;5100289;28;20187;-82
2023/07/16 12:46:07;;;;;;;71.57;6.20;;;26.80;1.00;;;;;;5099762;28;20432;-81
2023/07/16 12:48:33;;;;;;;69.10;5.70;;;26.70;1.00;;;;;;5084234;28;20179;-82
2023/07/16 12:50:59;;;;;;;70.43;5.20;;;26.50;1.00;;;;;;5102516;28;20485;-82